createdAt,value
2023-05-07T00:00:23.903Z,1.83
2023-05-07T00:02:25.523Z,1.92
2023-05-07T00:04:27.498Z,2.22
2023-05-07T00:06:30.025Z,1.88
2023-05-07T00:08:31.800Z,1.90
2023-05-07T00:10:33.396Z,2.10
2023-05-07T00:12:35.069Z,2.25
2023-05-07T00:14:37.108Z,2.28
2023-05-07T00:16:38.676Z,2.22
2023-05-07T00:18:40.315Z,2.47
2023-05-07T00:20:41.753Z,2.15
2023-05-07T00:22:43.279Z,2.17
2023-05-07T00:24:44.816Z,3.20
2023-05-07T00:26:46.392Z,2.20
2023-05-07T00:28:47.924Z,2.17
2023-05-07T00:30:49.431Z,2.58
2023-05-07T00:32:51.919Z,2.90
2023-05-07T00:34:53.492Z,2.35
2023-05-07T00:36:55.009Z,2.25
2023-05-07T00:38:57.980Z,2.40
2023-05-07T00:40:59.561Z,2.22
2023-05-07T00:43:01.158Z,2.15
2023-05-07T00:45:02.694Z,1.92
2023-05-07T00:47:05.742Z,2.45
2023-05-07T00:49:07.902Z,2.20
2023-05-07T00:51:12.267Z,2.38
2023-05-07T00:53:13.960Z,2.28
2023-05-07T00:55:15.641Z,2.17
2023-05-07T00:57:17.172Z,2.40
2023-05-07T00:59:18.858Z,1.92
2023-05-07T01:01:21.096Z,2.15
2023-05-07T01:03:22.868Z,2.38
2023-05-07T01:05:25.926Z,2.65
2023-05-07T01:07:28.532Z,2.90
2023-05-07T01:09:30.290Z,2.40
2023-05-07T01:11:32.061Z,3.10
2023-05-07T01:13:34.608Z,3.28
2023-05-07T01:15:36.190Z,3.00
2023-05-07T01:17:41.948Z,2.28
2023-05-07T01:19:43.678Z,2.20
2023-05-07T01:21:47.534Z,2.72
2023-05-07T01:23:49.097Z,1.80
2023-05-07T01:25:54.117Z,2.10
2023-05-07T01:27:55.694Z,1.42
2023-05-07T01:29:57.646Z,1.80
2023-05-07T01:32:01.068Z,2.05
2023-05-07T01:34:03.224Z,1.90
2023-05-07T01:36:07.679Z,2.00
2023-05-07T01:38:09.541Z,2.28
2023-05-07T01:40:11.629Z,1.70
2023-05-07T01:42:13.779Z,1.73
2023-05-07T01:44:15.689Z,2.00
2023-05-07T01:46:18.161Z,2.00
2023-05-07T01:48:19.924Z,2.58
2023-05-07T01:50:22.117Z,2.65
2023-05-07T01:52:23.619Z,2.08
2023-05-07T01:54:28.923Z,2.00
2023-05-07T01:56:31.162Z,2.40
2023-05-07T01:58:32.629Z,2.22
2023-05-07T02:00:34.181Z,1.88
2023-05-07T02:02:36.200Z,2.38
2023-05-07T02:04:37.749Z,2.22
2023-05-07T02:06:39.325Z,2.28
2023-05-07T02:08:40.881Z,1.70
2023-05-07T02:10:42.392Z,2.33
2023-05-07T02:12:43.896Z,2.13
2023-05-07T02:14:45.658Z,2.10
2023-05-07T02:16:47.325Z,2.28
2023-05-07T02:18:48.890Z,2.22
2023-05-07T02:20:50.563Z,2.03
2023-05-07T02:22:52.054Z,2.28
2023-05-07T02:24:53.636Z,2.50
2023-05-07T02:26:55.128Z,2.10
2023-05-07T02:28:56.846Z,1.95
2023-05-07T02:30:59.652Z,2.60
2023-05-07T02:33:01.278Z,2.28
2023-05-07T02:35:02.895Z,2.42
2023-05-07T02:37:04.379Z,2.53
2023-05-07T02:39:05.923Z,2.30
2023-05-07T02:41:07.453Z,2.78
2023-05-07T02:43:09.181Z,2.03
2023-05-07T02:45:11.085Z,2.45
2023-05-07T02:47:14.490Z,2.10
2023-05-07T02:49:15.996Z,2.47
2023-05-07T02:51:22.315Z,2.55
2023-05-07T02:53:28.750Z,2.45
2023-05-07T02:55:30.919Z,2.20
2023-05-07T02:57:32.486Z,2.70
2023-05-07T02:59:34.034Z,1.73
2023-05-07T03:01:35.727Z,2.58
2023-05-07T03:03:37.354Z,2.20
2023-05-07T03:05:38.855Z,1.80
2023-05-07T03:07:40.410Z,2.10
2023-05-07T03:09:41.999Z,2.38
2023-05-07T03:11:43.619Z,2.17
2023-05-07T03:13:45.261Z,2.03
2023-05-07T03:15:46.861Z,1.70
2023-05-07T03:17:49.046Z,2.90
2023-05-07T03:19:50.584Z,2.25
2023-05-07T03:21:52.268Z,1.70
2023-05-07T03:23:54.342Z,2.22
2023-05-07T03:25:55.961Z,2.38
2023-05-07T03:27:57.639Z,1.92
2023-05-07T03:29:59.144Z,1.98
2023-05-07T03:32:00.816Z,2.47
2023-05-07T03:34:02.389Z,2.80
2023-05-07T03:36:04.075Z,2.17
2023-05-07T03:38:05.801Z,2.28
2023-05-07T03:40:09.087Z,2.20
2023-05-07T03:42:10.799Z,3.47
2023-05-07T03:44:12.330Z,2.72
2023-05-07T03:46:13.816Z,2.58
2023-05-07T03:48:15.326Z,2.53
2023-05-07T03:50:16.803Z,3.28
2023-05-07T03:52:23.981Z,3.05
2023-05-07T03:54:25.498Z,3.17
2023-05-07T03:56:29.598Z,2.72
2023-05-07T03:58:31.158Z,2.80
2023-05-07T04:00:35.049Z,3.17
2023-05-07T04:02:36.747Z,3.00
2023-05-07T04:04:38.315Z,2.38
2023-05-07T04:06:39.829Z,3.25
2023-05-07T04:08:41.320Z,3.53
2023-05-07T04:10:42.852Z,3.15
2023-05-07T04:12:44.447Z,2.70
2023-05-07T04:14:46.594Z,2.78
2023-05-07T04:16:48.205Z,2.83
2023-05-07T04:18:49.826Z,2.75
2023-05-07T04:20:51.422Z,2.55
2023-05-07T04:22:52.890Z,2.90
2023-05-07T04:24:54.377Z,2.45
2023-05-07T04:26:56.122Z,2.75
2023-05-07T04:28:59.186Z,2.45
2023-05-07T04:31:00.688Z,2.58
2023-05-07T04:33:02.279Z,2.53
2023-05-07T04:35:04.251Z,2.28
2023-05-07T04:37:05.733Z,2.70
2023-05-07T04:39:07.895Z,2.40
2023-05-07T04:41:10.141Z,2.08
2023-05-07T04:43:11.691Z,2.72
2023-05-07T04:45:13.673Z,2.78
2023-05-07T04:47:15.222Z,2.50
2023-05-07T04:49:16.754Z,2.25
2023-05-07T04:51:18.216Z,2.35
2023-05-07T04:53:19.875Z,2.80
2023-05-07T04:55:21.356Z,2.33
2023-05-07T04:57:22.834Z,3.00
2023-05-07T04:59:24.453Z,3.83
2023-05-07T05:01:26.271Z,2.95
2023-05-07T05:03:27.969Z,3.00
2023-05-07T05:05:29.597Z,3.10
2023-05-07T05:07:31.241Z,2.67
2023-05-07T05:09:32.768Z,2.65
2023-05-07T05:11:34.226Z,2.38
2023-05-07T05:13:35.733Z,2.85
2023-05-07T05:15:37.289Z,3.08
2023-05-07T05:17:38.834Z,3.50
2023-05-07T05:19:40.391Z,3.67
2023-05-07T05:21:42.127Z,3.05
2023-05-07T05:23:43.698Z,2.95
2023-05-07T05:25:45.337Z,2.75
2023-05-07T05:27:46.844Z,2.28
2023-05-07T05:29:48.894Z,2.47
2023-05-07T05:31:50.525Z,3.10
2023-05-07T05:33:52.249Z,2.10
2023-05-07T05:35:55.278Z,2.85
2023-05-07T05:37:56.777Z,3.38
2023-05-07T05:39:58.298Z,2.60
2023-05-07T05:41:59.799Z,2.97
2023-05-07T05:44:01.336Z,2.70
2023-05-07T05:46:03.046Z,2.45
2023-05-07T05:48:04.824Z,3.10
2023-05-07T05:50:07.973Z,2.90
2023-05-07T05:52:11.559Z,4.13
2023-05-07T05:54:13.322Z,2.42
2023-05-07T05:56:14.843Z,2.35
2023-05-07T05:58:16.495Z,2.90
2023-05-07T06:00:18.065Z,2.50
2023-05-07T06:02:19.603Z,2.92
2023-05-07T06:04:21.137Z,3.55
2023-05-07T06:06:22.722Z,3.00
2023-05-07T06:08:24.232Z,3.13
2023-05-07T06:10:26.602Z,2.53
2023-05-07T06:12:28.138Z,1.77
2023-05-07T06:14:29.659Z,2.63
2023-05-07T06:16:31.182Z,1.88
2023-05-07T06:18:32.730Z,1.75
2023-05-07T06:20:34.298Z,2.42
2023-05-07T06:22:35.772Z,2.65
2023-05-07T06:24:37.315Z,1.92
2023-05-07T06:26:38.794Z,2.47
2023-05-07T06:28:40.293Z,2.10
2023-05-07T06:30:41.810Z,1.98
2023-05-07T06:32:43.356Z,2.00
2023-05-07T06:34:45.006Z,2.45
2023-05-07T06:36:46.607Z,2.67
2023-05-07T06:38:48.150Z,2.00
2023-05-07T06:40:50.699Z,2.10
2023-05-07T06:42:52.259Z,2.10
2023-05-07T06:44:53.785Z,1.90
2023-05-07T06:46:55.251Z,2.55
2023-05-07T06:48:57.801Z,2.55
2023-05-07T06:50:59.438Z,1.80
2023-05-07T06:53:01.024Z,1.80
2023-05-07T06:55:02.621Z,2.10
2023-05-07T06:57:04.222Z,1.83
2023-05-07T06:59:05.854Z,1.65
2023-05-07T07:01:07.380Z,1.40
2023-05-07T07:03:08.974Z,1.80
2023-05-07T07:05:10.613Z,1.70
2023-05-07T07:07:12.198Z,1.67
2023-05-07T07:09:13.674Z,2.20
2023-05-07T07:11:15.850Z,1.92
2023-05-07T07:13:17.482Z,1.83
2023-05-07T07:15:19.107Z,2.08
2023-05-07T07:17:20.711Z,1.70
2023-05-07T07:19:22.246Z,2.75
2023-05-07T07:21:23.745Z,2.65
2023-05-07T07:23:25.248Z,2.47
2023-05-07T07:25:26.798Z,2.38
2023-05-07T07:27:28.729Z,1.83
2023-05-07T07:29:30.309Z,1.80
2023-05-07T07:31:32.350Z,1.58
2023-05-07T07:33:33.843Z,1.75
2023-05-07T07:35:35.701Z,2.08
2023-05-07T07:37:37.695Z,2.22
2023-05-07T07:39:39.245Z,2.17
2023-05-07T07:41:40.725Z,1.73
2023-05-07T07:43:42.274Z,1.58
2023-05-07T07:45:43.869Z,1.98
2023-05-07T07:47:46.013Z,1.98
2023-05-07T07:49:47.566Z,1.80
2023-05-07T07:51:49.077Z,1.98
2023-05-07T07:53:50.841Z,1.70
2023-05-07T07:55:53.144Z,1.90
2023-05-07T07:57:55.532Z,2.08
2023-05-07T07:59:57.456Z,2.15
2023-05-07T08:01:59.070Z,1.98
2023-05-07T08:04:00.808Z,1.42
2023-05-07T08:06:02.427Z,1.70
2023-05-07T08:08:04.189Z,1.88
2023-05-07T08:10:05.908Z,1.65
2023-05-07T08:12:08.289Z,1.38
2023-05-07T08:14:09.772Z,1.63
2023-05-07T08:16:11.406Z,1.98
2023-05-07T08:18:13.337Z,1.90
2023-05-07T08:20:15.049Z,1.98
2023-05-07T08:22:16.720Z,1.70
2023-05-07T08:24:18.956Z,1.70
2023-05-07T08:26:21.569Z,1.50
2023-05-07T08:28:23.195Z,1.90
2023-05-07T08:30:24.737Z,1.67
2023-05-07T08:32:26.280Z,1.52
2023-05-07T08:34:27.836Z,1.40
2023-05-07T08:36:29.650Z,1.60
2023-05-07T08:38:32.436Z,1.88
2023-05-07T08:40:38.773Z,1.60
2023-05-07T08:42:41.245Z,1.30
2023-05-07T08:44:46.809Z,1.35
2023-05-07T08:46:49.251Z,1.40
2023-05-07T08:48:51.801Z,1.40
2023-05-07T08:50:53.417Z,1.50
2023-05-07T08:52:55.067Z,1.20
2023-05-07T08:54:57.486Z,1.00
2023-05-07T08:56:59.039Z,1.30
2023-05-07T08:59:00.861Z,1.48
2023-05-07T09:01:06.502Z,1.08
2023-05-07T09:03:08.238Z,1.40
2023-05-07T09:05:10.324Z,1.38
2023-05-07T09:07:12.008Z,1.20
2023-05-07T09:09:15.939Z,1.55
2023-05-07T09:11:17.495Z,1.20
2023-05-07T09:13:19.562Z,1.10
2023-05-07T09:15:21.462Z,1.27
2023-05-07T09:17:23.362Z,1.08
2023-05-07T09:19:25.621Z,0.85
2023-05-07T09:21:28.243Z,0.90
2023-05-07T09:23:29.945Z,0.90
2023-05-07T09:25:33.281Z,1.17
2023-05-07T09:27:34.831Z,1.42
2023-05-07T09:29:36.603Z,1.48
2023-05-07T09:31:38.862Z,1.10
2023-05-07T09:33:40.762Z,1.30
2023-05-07T09:35:42.277Z,1.30
2023-05-07T09:37:43.832Z,1.00
2023-05-07T09:39:50.056Z,1.08
2023-05-07T09:41:53.354Z,0.93
2023-05-07T09:43:55.552Z,1.00
2023-05-07T09:45:58.697Z,1.08
2023-05-07T09:48:00.606Z,1.10
2023-05-07T09:50:06.691Z,1.35
2023-05-07T09:52:09.796Z,1.10
2023-05-07T09:54:12.094Z,0.90
2023-05-07T09:56:15.316Z,1.02
2023-05-07T09:58:18.209Z,1.05
2023-05-07T10:00:21.117Z,1.05
2023-05-07T10:02:22.908Z,1.08
2023-05-07T10:04:24.655Z,1.05
2023-05-07T10:06:26.766Z,1.02
2023-05-07T10:08:28.754Z,0.90
2023-05-07T10:10:30.624Z,1.08
2023-05-07T10:12:38.548Z,0.98
2023-05-07T10:14:40.812Z,0.93
2023-05-07T10:16:42.719Z,1.00
2023-05-07T10:18:44.378Z,0.80
2023-05-07T10:20:47.029Z,1.15
2023-05-07T10:22:50.057Z,1.25
2023-05-07T10:24:53.964Z,0.95
2023-05-07T10:26:56.588Z,1.20
2023-05-07T10:29:32.126Z,1.15
2023-05-07T10:31:55.325Z,1.17
2023-05-07T10:33:57.726Z,1.73
2023-05-07T10:36:01.566Z,0.90
2023-05-07T10:38:04.174Z,0.93
2023-05-07T10:40:08.125Z,0.98
2023-05-07T10:42:14.523Z,0.93
2023-05-07T10:44:29.760Z,1.10
2023-05-07T10:46:34.429Z,0.85
2023-05-07T10:49:05.430Z,0.73
2023-05-07T10:51:21.749Z,1.02
2023-05-07T10:53:26.928Z,1.20
2023-05-07T10:55:28.625Z,1.08
2023-05-07T10:57:33.055Z,1.50
2023-05-07T10:59:41.815Z,0.98
2023-05-07T11:02:00.387Z,0.80
2023-05-07T11:04:16.096Z,0.90
2023-05-07T11:06:17.675Z,0.88
2023-05-07T11:08:19.298Z,1.10
2023-05-07T11:10:20.793Z,0.90
2023-05-07T11:12:37.427Z,0.82
2023-05-07T11:14:46.478Z,1.08
2023-05-07T11:16:48.109Z,1.00
2023-05-07T11:18:51.979Z,1.15
2023-05-07T11:20:55.962Z,1.58
2023-05-07T11:22:58.174Z,0.95
2023-05-07T11:25:03.830Z,1.10
2023-05-07T11:27:05.579Z,1.20
2023-05-07T11:29:14.876Z,0.88
2023-05-07T11:31:22.122Z,1.08
2023-05-07T11:33:24.084Z,0.70
2023-05-07T11:35:26.250Z,1.75
2023-05-07T11:37:30.587Z,1.00
2023-05-07T11:39:37.032Z,1.05
2023-05-07T11:41:38.756Z,0.85
2023-05-07T11:43:55.962Z,1.00
2023-05-07T11:46:06.469Z,1.08
2023-05-07T11:48:08.088Z,1.15
2023-05-07T11:50:11.495Z,0.98
2023-05-07T11:52:14.292Z,1.10
2023-05-07T11:54:18.401Z,0.85
2023-05-07T11:56:20.273Z,0.88
2023-05-07T11:58:23.592Z,1.20
2023-05-07T12:00:25.166Z,1.25
2023-05-07T12:02:27.294Z,1.20
2023-05-07T12:04:31.218Z,1.02
2023-05-07T12:06:37.311Z,1.10
2023-05-07T12:08:40.507Z,1.40
2023-05-07T12:10:43.025Z,1.50
2023-05-07T12:12:47.292Z,1.92
2023-05-07T12:14:49.110Z,2.35
2023-05-07T12:16:50.736Z,1.67
2023-05-07T12:18:53.708Z,1.90
2023-05-07T12:20:55.292Z,2.00
2023-05-07T12:22:57.326Z,2.05
2023-05-07T12:24:59.589Z,1.85
2023-05-07T12:27:01.299Z,2.20
2023-05-07T12:29:04.074Z,2.13
2023-05-07T12:31:06.633Z,1.95
2023-05-07T12:33:08.710Z,1.70
2023-05-07T12:35:10.628Z,1.80
2023-05-07T12:37:13.771Z,1.65
2023-05-07T12:39:15.304Z,1.33
2023-05-07T12:41:17.394Z,1.50
2023-05-07T12:43:25.327Z,1.88
2023-05-07T12:45:27.492Z,1.75
2023-05-07T12:47:29.314Z,1.38
2023-05-07T12:49:30.851Z,1.60
2023-05-07T12:51:32.375Z,1.75
2023-05-07T12:53:33.903Z,1.58
2023-05-07T12:55:46.722Z,1.65
2023-05-07T12:57:53.836Z,1.48
2023-05-07T12:59:58.971Z,2.08
2023-05-07T13:02:00.610Z,1.63
2023-05-07T13:04:03.729Z,1.90
2023-05-07T13:06:13.878Z,2.10
2023-05-07T13:08:24.890Z,2.47
2023-05-07T13:10:27.648Z,1.98
2023-05-07T13:12:29.266Z,2.22
2023-05-07T13:14:30.690Z,2.20
2023-05-07T13:16:32.160Z,2.00
2023-05-07T13:18:35.054Z,2.13
2023-05-07T13:20:36.732Z,2.50
2023-05-07T13:22:38.396Z,2.10
2023-05-07T13:24:42.646Z,2.22
2023-05-07T13:26:46.151Z,2.80
2023-05-07T13:28:47.947Z,2.45
2023-05-07T13:30:49.584Z,2.17
2023-05-07T13:32:51.176Z,3.17
2023-05-07T13:34:52.701Z,3.08
2023-05-07T13:36:54.178Z,2.55
2023-05-07T13:38:55.735Z,2.85
2023-05-07T13:40:57.190Z,3.47
2023-05-07T13:43:02.909Z,2.45
2023-05-07T13:45:06.074Z,3.10
2023-05-07T13:47:08.771Z,2.58
2023-05-07T13:49:12.102Z,2.28
2023-05-07T13:51:13.627Z,2.67
2023-05-07T13:53:18.904Z,1.92
2023-05-07T13:55:21.772Z,2.17
2023-05-07T13:57:23.254Z,2.17
2023-05-07T13:59:24.700Z,1.50
2023-05-07T14:01:26.261Z,1.60
2023-05-07T14:03:27.901Z,2.10
2023-05-07T14:05:29.405Z,3.13
2023-05-07T14:07:30.872Z,2.10
2023-05-07T14:09:32.405Z,2.03
2023-05-07T14:11:34.122Z,1.92
2023-05-07T14:13:37.650Z,1.85
2023-05-07T14:15:39.200Z,2.17
2023-05-07T14:17:40.826Z,1.85
2023-05-07T14:19:42.290Z,2.42
2023-05-07T14:21:43.747Z,1.45
2023-05-07T14:23:45.235Z,1.95
2023-05-07T14:25:48.565Z,1.88
2023-05-07T14:27:50.057Z,4.57
2023-05-07T14:29:52.145Z,3.10
2023-05-07T14:31:53.599Z,2.55
2023-05-07T14:33:55.176Z,1.77
2023-05-07T14:35:56.610Z,2.13
2023-05-07T14:37:58.052Z,1.45
2023-05-07T14:39:59.484Z,1.55
2023-05-07T14:42:00.992Z,1.60
2023-05-07T14:44:05.111Z,1.00
2023-05-07T14:46:06.618Z,1.52
2023-05-07T14:48:10.302Z,1.35
2023-05-07T14:50:11.810Z,1.73
2023-05-07T14:52:13.343Z,1.30
2023-05-07T14:54:15.558Z,1.48
2023-05-07T14:56:17.865Z,1.30
2023-05-07T14:58:19.389Z,1.58
2023-05-07T15:00:21.043Z,1.30
2023-05-07T15:02:22.861Z,1.20
2023-05-07T15:04:25.424Z,1.70
2023-05-07T15:06:27.845Z,1.30
2023-05-07T15:08:29.643Z,1.55
2023-05-07T15:10:31.147Z,1.80
2023-05-07T15:12:32.663Z,1.60
2023-05-07T15:14:34.364Z,3.00
2023-05-07T15:16:36.029Z,2.63
2023-05-07T15:18:37.574Z,4.75
2023-05-07T15:20:39.238Z,3.28
2023-05-07T15:22:42.642Z,2.30
2023-05-07T15:24:44.929Z,1.90
2023-05-07T15:26:46.453Z,2.00
2023-05-07T15:28:47.935Z,1.95
2023-05-07T15:30:49.425Z,1.52
2023-05-07T15:32:51.730Z,1.40
2023-05-07T15:34:53.262Z,1.75
2023-05-07T15:36:58.180Z,1.60
2023-05-07T15:38:59.733Z,1.40
2023-05-07T15:41:01.399Z,1.23
2023-05-07T15:43:03.575Z,1.50
2023-05-07T15:45:06.323Z,1.48
2023-05-07T15:47:07.862Z,1.35
2023-05-07T15:49:10.651Z,1.38
2023-05-07T15:51:13.187Z,1.35
2023-05-07T15:53:16.542Z,1.60
2023-05-07T15:55:18.905Z,1.55
2023-05-07T15:57:22.695Z,2.13
2023-05-07T15:59:24.268Z,1.30
2023-05-07T16:01:26.162Z,1.50
2023-05-07T16:03:29.291Z,1.85
2023-05-07T16:05:31.227Z,1.70
2023-05-07T16:07:32.755Z,1.60
2023-05-07T16:09:34.844Z,1.85
2023-05-07T16:11:36.999Z,1.60
2023-05-07T16:13:39.181Z,1.80
2023-05-07T16:15:40.740Z,1.67
2023-05-07T16:17:46.410Z,1.75
2023-05-07T16:19:49.143Z,1.80
2023-05-07T16:21:51.754Z,1.90
2023-05-07T16:23:53.314Z,1.50
2023-05-07T16:26:00.451Z,1.60
2023-05-07T16:28:03.127Z,1.45
2023-05-07T16:30:05.932Z,1.83
2023-05-07T16:32:07.621Z,2.08
2023-05-07T16:34:09.104Z,2.10
2023-05-07T16:36:11.206Z,2.45
2023-05-07T16:38:14.548Z,2.20
2023-05-07T16:40:16.370Z,2.63
2023-05-07T16:42:17.882Z,2.03
2023-05-07T16:44:19.458Z,2.08
2023-05-07T16:46:21.223Z,2.67
2023-05-07T16:48:22.971Z,2.30
2023-05-07T16:50:25.486Z,1.55
2023-05-07T16:52:29.060Z,1.77
2023-05-07T16:54:31.808Z,1.80
2023-05-07T16:56:33.638Z,2.15
2023-05-07T16:58:37.137Z,1.80
2023-05-07T17:02:46.931Z,1.90
2023-05-07T17:04:48.586Z,1.60
2023-05-07T17:06:50.101Z,2.00
2023-05-07T17:08:53.030Z,1.90
2023-05-07T17:10:54.859Z,2.10
2023-05-07T17:12:56.436Z,2.83
2023-05-07T17:14:57.935Z,2.33
2023-05-07T17:16:59.440Z,2.63
2023-05-07T17:19:00.910Z,2.30
2023-05-07T17:21:02.860Z,2.47
2023-05-07T17:23:04.336Z,2.15
2023-05-07T17:25:07.182Z,2.72
2023-05-07T17:27:08.712Z,2.90
2023-05-07T17:29:10.273Z,2.20
2023-05-07T17:31:11.849Z,2.90
2023-05-07T17:33:21.032Z,2.47
2023-05-07T17:35:23.411Z,2.35
2023-05-07T17:37:25.870Z,2.63
2023-05-07T17:39:33.043Z,2.55
2023-05-07T17:41:38.123Z,3.92
2023-05-07T17:43:39.616Z,3.65
2023-05-07T17:45:42.023Z,2.63
2023-05-07T17:47:43.750Z,3.20
2023-05-07T17:49:45.274Z,3.08
2023-05-07T17:51:54.032Z,3.28
2023-05-07T17:54:00.734Z,3.80
2023-05-07T17:56:02.236Z,3.42
2023-05-07T17:58:03.987Z,3.22
2023-05-07T18:00:10.384Z,3.88
2023-05-07T18:02:12.302Z,3.40
2023-05-07T18:04:13.854Z,4.13
2023-05-07T18:06:19.275Z,2.95
2023-05-07T18:08:21.622Z,3.55
2023-05-07T18:10:23.788Z,2.88
2023-05-07T18:12:27.561Z,2.78
2023-05-07T18:14:30.156Z,2.92
2023-05-07T18:16:32.415Z,3.25
2023-05-07T18:18:37.726Z,2.67
2023-05-07T18:20:42.378Z,2.88
2023-05-07T18:22:43.876Z,2.08
2023-05-07T18:24:45.496Z,2.58
2023-05-07T18:26:49.183Z,2.50
2023-05-07T18:28:50.723Z,2.50
2023-05-07T18:30:53.010Z,2.78
2023-05-07T18:32:54.564Z,3.10
2023-05-07T18:34:56.232Z,2.95
2023-05-07T18:36:57.805Z,3.03
2023-05-07T18:38:59.350Z,3.03
2023-05-07T18:41:02.941Z,2.78
2023-05-07T18:43:07.086Z,3.05
2023-05-07T18:45:13.559Z,2.72
2023-05-07T18:47:17.135Z,3.15
2023-05-07T18:49:20.636Z,2.70
2023-05-07T18:51:22.560Z,2.83
2023-05-07T18:53:24.333Z,3.63
2023-05-07T18:55:25.897Z,2.90
2023-05-07T18:57:29.479Z,3.70
2023-05-07T18:59:31.057Z,2.33
2023-05-07T19:01:32.573Z,2.63
2023-05-07T19:03:37.389Z,3.30
2023-05-07T19:05:38.855Z,2.72
2023-05-07T19:07:40.538Z,2.22
2023-05-07T19:09:50.544Z,2.83
2023-05-07T19:11:58.583Z,3.35
2023-05-07T19:14:02.928Z,2.50
2023-05-07T19:16:10.707Z,2.00
2023-05-07T19:18:12.769Z,2.53
2023-05-07T19:20:14.250Z,3.03
2023-05-07T19:22:16.635Z,2.58
2023-05-07T19:24:18.522Z,2.70
2023-05-07T19:26:21.251Z,3.03
2023-05-07T19:28:23.561Z,3.47
2023-05-07T19:30:25.148Z,3.35
2023-05-07T19:32:29.062Z,2.95
2023-05-07T19:34:30.785Z,3.47
2023-05-07T19:36:34.368Z,3.67
2023-05-07T19:38:39.174Z,2.70
2023-05-07T19:40:41.638Z,2.15
2023-05-07T19:42:43.133Z,2.42
2023-05-07T19:44:44.743Z,3.35
2023-05-07T19:46:48.679Z,3.45
2023-05-07T19:48:52.783Z,3.45
2023-05-07T19:50:55.470Z,3.08
2023-05-07T19:52:56.962Z,3.78
2023-05-07T19:54:58.585Z,3.28
2023-05-07T19:57:00.110Z,3.30
2023-05-07T19:59:01.614Z,3.83
2023-05-07T20:01:04.112Z,3.80
2023-05-07T20:03:06.408Z,3.70
2023-05-07T20:05:09.159Z,2.97
2023-05-07T20:07:11.048Z,3.45
2023-05-07T20:09:14.975Z,3.42
2023-05-07T20:11:17.717Z,2.97
2023-05-07T20:13:22.504Z,3.17
2023-05-07T20:15:24.262Z,3.55
2023-05-07T20:17:26.160Z,3.72
2023-05-07T20:19:27.749Z,3.28
2023-05-07T20:21:29.352Z,3.25
2023-05-07T20:23:31.065Z,2.72
2023-05-07T20:25:32.538Z,2.92
2023-05-07T20:27:35.383Z,3.08
2023-05-07T20:29:36.870Z,3.63
2023-05-07T20:31:40.336Z,3.08
2023-05-07T20:33:41.975Z,3.78
2023-05-07T20:35:45.806Z,3.13
2023-05-07T20:37:47.699Z,3.50
2023-05-07T20:39:49.258Z,3.80
2023-05-07T20:41:52.300Z,3.95
2023-05-07T20:43:57.723Z,3.08
2023-05-07T20:46:02.601Z,3.30
2023-05-07T20:48:05.633Z,3.60
2023-05-07T20:50:07.776Z,3.10
2023-05-07T20:52:09.944Z,2.35
2023-05-07T20:54:11.705Z,3.63
2023-05-07T20:56:16.656Z,2.53
2023-05-07T20:58:18.333Z,2.72
2023-05-07T21:00:20.031Z,2.97
2023-05-07T21:02:22.626Z,2.15
2023-05-07T21:04:24.241Z,2.65
2023-05-07T21:06:26.178Z,3.28
2023-05-07T21:08:27.785Z,3.22
2023-05-07T21:10:29.382Z,3.60
2023-05-07T21:12:31.218Z,3.05
2023-05-07T21:14:32.714Z,3.33
2023-05-07T21:16:34.239Z,3.97
2023-05-07T21:18:40.076Z,2.85
2023-05-07T21:20:42.411Z,2.60
2023-05-07T21:22:43.922Z,2.55
2023-05-07T21:24:45.442Z,2.42
2023-05-07T21:26:46.976Z,2.40
2023-05-07T21:28:48.552Z,2.60
2023-05-07T21:30:50.107Z,3.00
2023-05-07T21:32:53.346Z,2.88
2023-05-07T21:34:55.813Z,3.10
2023-05-07T21:36:58.606Z,2.60
2023-05-07T21:39:00.171Z,2.80
2023-05-07T21:41:01.716Z,2.55
2023-05-07T21:43:03.252Z,2.20
2023-05-07T21:45:06.396Z,2.95
2023-05-07T21:47:08.306Z,3.20
2023-05-07T21:49:12.406Z,2.33
2023-05-07T21:51:14.444Z,3.00
2023-05-07T21:53:16.294Z,2.72
2023-05-07T21:55:19.034Z,2.80
2023-05-07T21:57:22.029Z,2.42
2023-05-07T21:59:23.734Z,3.30
2023-05-07T22:01:25.349Z,2.83
2023-05-07T22:03:28.916Z,2.60
2023-05-07T22:05:30.580Z,2.70
2023-05-07T22:07:32.900Z,2.30
2023-05-07T22:09:34.954Z,2.10
2023-05-07T22:11:36.425Z,2.20
2023-05-07T22:13:37.936Z,2.00
2023-05-07T22:15:49.637Z,2.08
2023-05-07T22:17:59.855Z,2.90
2023-05-07T22:20:03.642Z,2.15
2023-05-07T22:22:05.679Z,2.45
2023-05-07T22:24:07.457Z,2.35
2023-05-07T22:26:12.853Z,2.05
2023-05-07T22:28:15.272Z,2.88
2023-05-07T22:30:17.465Z,3.38
2023-05-07T22:32:19.349Z,2.72
2023-05-07T22:34:22.548Z,3.22
2023-05-07T22:36:24.055Z,2.70
2023-05-07T22:38:27.501Z,2.50
2023-05-07T22:40:29.010Z,2.53
2023-05-07T22:42:31.235Z,2.80
2023-05-07T22:44:32.713Z,2.92
2023-05-07T22:46:34.760Z,2.85
2023-05-07T22:48:37.229Z,3.28
2023-05-07T22:50:41.308Z,2.30
2023-05-07T22:52:42.843Z,2.33
2023-05-07T22:54:46.193Z,2.95
2023-05-07T22:56:47.753Z,2.20
2023-05-07T22:58:50.165Z,2.22
2023-05-07T23:00:52.783Z,2.10
2023-05-07T23:02:54.515Z,2.30
2023-05-07T23:04:59.326Z,2.22
2023-05-07T23:07:00.880Z,1.83
2023-05-07T23:09:02.991Z,2.00
2023-05-07T23:11:04.636Z,1.80
2023-05-07T23:13:06.338Z,2.20
2023-05-07T23:15:08.948Z,1.90
2023-05-07T23:17:11.178Z,2.40
2023-05-07T23:19:13.083Z,2.00
2023-05-07T23:21:14.582Z,2.13
2023-05-07T23:23:19.835Z,2.00
2023-05-07T23:25:22.253Z,1.92
2023-05-07T23:27:23.772Z,2.05
2023-05-07T23:29:25.309Z,2.88
2023-05-07T23:31:28.371Z,2.40
2023-05-07T23:33:29.926Z,2.63
2023-05-07T23:35:31.403Z,2.75
2023-05-07T23:37:32.929Z,2.92
2023-05-07T23:39:34.454Z,3.10
2023-05-07T23:41:36.337Z,3.10
2023-05-07T23:43:37.901Z,2.75
2023-05-07T23:45:39.414Z,3.30
2023-05-07T23:47:41.084Z,2.65
2023-05-07T23:49:42.612Z,2.55
2023-05-07T23:51:44.117Z,2.80
2023-05-07T23:53:45.873Z,3.10
2023-05-07T23:55:51.163Z,2.28
2023-05-07T23:57:52.684Z,2.60
2023-05-07T23:59:54.325Z,3.45
